createdAt,value
2018-05-23T00:02:01.201Z,5.20
2018-05-23T00:04:28.783Z,5.57
2018-05-23T00:06:56.343Z,5.53
2018-05-23T00:09:23.943Z,5.40
2018-05-23T00:11:51.524Z,6.00
2018-05-23T00:14:19.849Z,5.63
2018-05-23T00:16:47.446Z,5.20
2018-05-23T00:19:15.019Z,5.73
2018-05-23T00:21:42.584Z,4.53
2018-05-23T00:24:10.204Z,7.20
2018-05-23T00:26:37.764Z,4.80
2018-05-23T00:29:06.127Z,4.63
2018-05-23T00:31:33.691Z,5.00
2018-05-23T00:34:01.293Z,5.20
2018-05-23T00:36:28.874Z,5.13
2018-05-23T00:38:56.441Z,4.30
2018-05-23T00:41:24.044Z,4.47
2018-05-23T00:43:51.622Z,6.63
2018-05-23T00:46:19.234Z,4.63
2018-05-23T00:48:46.802Z,4.57
2018-05-23T00:51:14.366Z,5.73
2018-05-23T00:53:41.972Z,5.57
2018-05-23T00:56:09.532Z,4.90
2018-05-23T00:58:37.862Z,5.40
2018-05-23T01:01:05.468Z,4.40
2018-05-23T01:03:33.810Z,5.43
2018-05-23T01:06:01.371Z,4.37
2018-05-23T01:08:28.988Z,4.93
2018-05-23T01:10:56.587Z,6.03
2018-05-23T01:13:24.163Z,8.53
2018-05-23T01:15:51.758Z,6.13
2018-05-23T01:18:19.357Z,4.30
2018-05-23T01:20:46.939Z,4.53
2018-05-23T01:23:14.533Z,6.30
2018-05-23T01:25:42.092Z,7.40
2018-05-23T01:28:09.655Z,5.60
2018-05-23T01:30:37.259Z,5.03
2018-05-23T01:33:05.600Z,4.97
2018-05-23T01:35:33.183Z,6.00
2018-05-23T01:38:00.777Z,5.10
2018-05-23T01:40:29.110Z,4.50
2018-05-23T01:42:56.713Z,5.20
2018-05-23T01:45:25.108Z,5.07
2018-05-23T01:47:53.495Z,6.47
2018-05-23T01:50:21.093Z,4.97
2018-05-23T01:52:48.749Z,4.50
2018-05-23T01:55:16.358Z,5.50
2018-05-23T01:57:44.001Z,7.50
2018-05-23T02:00:11.635Z,4.50
2018-05-23T02:02:39.491Z,6.07
2018-05-23T02:05:07.105Z,5.17
2018-05-23T02:07:34.737Z,6.63
2018-05-23T02:10:02.344Z,7.90
2018-05-23T02:12:29.941Z,4.93
2018-05-23T02:14:58.364Z,4.50
2018-05-23T02:17:25.969Z,5.10
2018-05-23T02:19:53.584Z,6.57
2018-05-23T02:22:21.222Z,5.30
2018-05-23T02:24:49.610Z,5.17
2018-05-23T02:27:18.010Z,5.37
2018-05-23T02:29:45.655Z,5.07
2018-05-23T02:32:14.040Z,5.27
2018-05-23T02:34:42.419Z,5.40
2018-05-23T02:37:10.843Z,5.07
2018-05-23T02:39:38.447Z,6.17
2018-05-23T02:42:06.055Z,6.90
2018-05-23T02:44:33.683Z,8.33
2018-05-23T02:47:01.295Z,6.93
2018-05-23T02:49:28.925Z,7.00
2018-05-23T02:51:57.331Z,7.93
2018-05-23T02:54:24.933Z,6.40
2018-05-23T02:56:52.540Z,6.17
2018-05-23T02:59:20.959Z,5.77
2018-05-23T03:01:48.573Z,6.03
2018-05-23T03:04:16.177Z,5.63
2018-05-23T03:06:43.811Z,6.23
2018-05-23T03:09:11.430Z,5.93
2018-05-23T03:11:39.064Z,6.07
2018-05-23T03:14:07.465Z,4.90
2018-05-23T03:16:35.073Z,6.17
2018-05-23T03:19:02.690Z,5.50
2018-05-23T03:21:30.588Z,6.70
2018-05-23T03:23:58.247Z,5.47
2018-05-23T03:26:25.851Z,5.37
2018-05-23T03:28:53.490Z,5.20
2018-05-23T03:31:21.091Z,5.63
2018-05-23T03:33:48.711Z,6.20
2018-05-23T03:36:16.348Z,6.17
2018-05-23T03:38:43.948Z,5.37
2018-05-23T03:41:12.366Z,7.93
2018-05-23T03:43:40.018Z,6.03
2018-05-23T03:46:07.621Z,6.10
2018-05-23T03:48:35.991Z,6.43
2018-05-23T03:51:04.418Z,7.07
2018-05-23T03:53:32.025Z,8.10
2018-05-23T03:55:59.630Z,6.97
2018-05-23T03:58:27.262Z,9.37
2018-05-23T04:01:08.168Z,6.67
2018-05-23T04:03:47.630Z,7.60
2018-05-23T04:06:27.070Z,5.97
2018-05-23T04:08:54.829Z,6.03
2018-05-23T04:11:22.453Z,7.63
2018-05-23T04:13:50.823Z,8.33
2018-05-23T04:16:19.229Z,8.50
2018-05-23T04:18:46.830Z,8.47
2018-05-23T04:21:14.433Z,8.60
2018-05-23T04:23:42.099Z,8.67
2018-05-23T04:26:09.706Z,7.13
2018-05-23T04:28:37.325Z,10.03
2018-05-23T04:31:05.742Z,9.03
2018-05-23T04:33:33.366Z,8.53
2018-05-23T04:36:00.994Z,8.73
2018-05-23T04:38:28.625Z,7.70
2018-05-23T04:40:56.990Z,7.53
2018-05-23T04:43:24.593Z,11.10
2018-05-23T04:45:52.333Z,8.83
2018-05-23T04:48:20.700Z,8.47
2018-05-23T04:50:48.327Z,6.80
2018-05-23T04:53:15.991Z,7.33
2018-05-23T04:55:43.605Z,9.17
2018-05-23T04:58:11.272Z,7.27
2018-05-23T05:00:38.918Z,7.23
2018-05-23T05:03:06.537Z,8.77
2018-05-23T05:05:34.148Z,10.20
2018-05-23T05:08:01.848Z,11.03
2018-05-23T05:10:30.217Z,12.60
2018-05-23T05:12:57.817Z,8.93
2018-05-23T05:15:25.466Z,8.03
2018-05-23T05:17:53.851Z,9.17
2018-05-23T05:20:22.221Z,8.03
2018-05-23T05:22:50.631Z,8.47
2018-05-23T05:25:18.233Z,9.47
2018-05-23T05:27:45.840Z,10.50
2018-05-23T05:30:14.295Z,9.07
2018-05-23T05:32:41.926Z,12.63
2018-05-23T05:35:09.538Z,9.43
2018-05-23T05:37:37.175Z,10.83
2018-05-23T05:40:04.793Z,9.50
2018-05-23T05:42:33.182Z,12.93
2018-05-23T05:45:02.532Z,11.53
2018-05-23T05:47:30.142Z,11.50
2018-05-23T05:49:58.516Z,11.87
2018-05-23T05:52:26.930Z,11.70
2018-05-23T05:54:54.541Z,10.70
2018-05-23T05:57:22.146Z,11.13
2018-05-23T05:59:50.559Z,11.57
2018-05-23T06:02:18.177Z,13.87
2018-05-23T06:04:45.784Z,9.77
2018-05-23T06:07:13.433Z,9.20
2018-05-23T06:09:41.076Z,9.33
2018-05-23T06:12:09.457Z,11.10
2018-05-23T06:14:37.147Z,11.00
2018-05-23T06:17:05.515Z,8.03
2018-05-23T06:19:33.893Z,10.30
2018-05-23T06:22:02.338Z,10.00
2018-05-23T06:24:29.988Z,12.00
2018-05-23T06:26:57.590Z,10.50
2018-05-23T06:29:25.262Z,12.83
2018-05-23T06:31:52.901Z,11.50
2018-05-23T06:34:21.311Z,12.37
2018-05-23T06:36:48.989Z,10.10
2018-05-23T06:39:16.599Z,10.23
2018-05-23T06:41:44.204Z,12.07
2018-05-23T06:44:11.843Z,11.57
2018-05-23T06:46:39.484Z,11.67
2018-05-23T06:49:07.109Z,13.30
2018-05-23T06:51:34.753Z,12.30
2018-05-23T06:54:02.364Z,11.73
2018-05-23T06:56:30.731Z,11.37
2018-05-23T06:58:58.379Z,11.57
2018-05-23T07:01:25.988Z,11.33
2018-05-23T07:03:53.593Z,11.77
2018-05-23T07:06:21.231Z,11.47
2018-05-23T07:08:48.857Z,12.23
2018-05-23T07:11:16.471Z,12.00
2018-05-23T07:13:44.125Z,11.53
2018-05-23T07:16:11.739Z,10.83
2018-05-23T07:18:39.361Z,14.33
2018-05-23T07:21:07.039Z,12.07
2018-05-23T07:23:34.668Z,13.67
2018-05-23T07:26:03.073Z,13.93
2018-05-23T07:28:30.762Z,11.97
2018-05-23T07:30:58.371Z,11.57
2018-05-23T07:33:26.751Z,12.60
2018-05-23T07:35:54.411Z,13.57
2018-05-23T07:38:22.126Z,14.63
2018-05-23T07:40:49.709Z,12.00
2018-05-23T07:43:17.467Z,9.47
2018-05-23T07:45:45.076Z,10.10
2018-05-23T07:48:12.693Z,14.20
2018-05-23T07:50:40.431Z,13.00
2018-05-23T07:53:08.805Z,12.17
2018-05-23T07:55:37.206Z,11.00
2018-05-23T07:58:04.851Z,11.13
2018-05-23T08:00:32.477Z,11.03
2018-05-23T08:03:00.083Z,9.70
2018-05-23T08:05:28.521Z,11.87
2018-05-23T08:07:56.149Z,12.60
2018-05-23T08:10:24.524Z,12.57
2018-05-23T08:12:53.040Z,10.47
2018-05-23T08:15:20.652Z,10.73
2018-05-23T08:17:48.265Z,17.03
2018-05-23T08:20:15.922Z,13.23
2018-05-23T08:22:43.532Z,10.27
2018-05-23T08:25:11.138Z,11.47
2018-05-23T08:27:39.554Z,11.80
2018-05-23T08:30:07.162Z,10.37
2018-05-23T08:32:34.794Z,10.70
2018-05-23T08:35:02.484Z,14.70
2018-05-23T08:37:30.101Z,12.27
2018-05-23T08:39:57.710Z,12.43
2018-05-23T08:42:25.556Z,11.40
2018-05-23T08:44:53.157Z,10.10
2018-05-23T08:47:20.761Z,12.77
2018-05-23T08:49:49.166Z,9.73
2018-05-23T08:52:16.776Z,10.00
2018-05-23T08:54:44.379Z,10.10
2018-05-23T08:57:12.024Z,9.37
2018-05-23T08:59:40.399Z,11.63
2018-05-23T09:02:07.999Z,9.87
2018-05-23T09:04:35.638Z,8.33
2018-05-23T09:07:04.024Z,10.23
2018-05-23T09:09:32.390Z,9.33
2018-05-23T09:12:00.029Z,8.87
2018-05-23T09:14:27.712Z,10.73
2018-05-23T09:16:55.330Z,9.73
2018-05-23T09:19:23.033Z,10.00
2018-05-23T09:21:50.647Z,10.40
2018-05-23T09:24:19.017Z,8.73
2018-05-23T09:26:47.422Z,8.63
2018-05-23T09:29:15.026Z,11.17
2018-05-23T09:31:42.630Z,10.70
2018-05-23T09:34:11.031Z,10.20
2018-05-23T09:36:38.633Z,7.60
2018-05-23T09:39:07.156Z,9.73
2018-05-23T09:41:34.904Z,12.10
2018-05-23T09:44:02.517Z,11.40
2018-05-23T09:46:30.142Z,11.50
2018-05-23T09:48:57.781Z,7.90
2018-05-23T09:51:25.395Z,6.80
2018-05-23T09:53:53.768Z,11.27
2018-05-23T09:56:21.401Z,7.23
2018-05-23T09:58:49.015Z,4.97
2018-05-23T10:01:17.382Z,7.90
2018-05-23T10:03:45.044Z,6.80
2018-05-23T10:06:12.641Z,8.60
2018-05-23T10:08:40.247Z,7.60
2018-05-23T10:11:07.904Z,6.37
2018-05-23T10:13:35.510Z,7.20
2018-05-23T10:16:03.127Z,7.40
2018-05-23T10:18:30.781Z,9.03
2018-05-23T10:20:58.416Z,7.80
2018-05-23T10:23:26.787Z,8.37
2018-05-23T10:25:54.491Z,9.20
2018-05-23T10:28:22.102Z,9.03
2018-05-23T10:30:50.569Z,7.10
2018-05-23T10:33:18.243Z,9.20
2018-05-23T10:35:45.840Z,6.57
2018-05-23T10:38:13.463Z,9.00
2018-05-23T10:40:41.110Z,8.27
2018-05-23T10:43:08.753Z,7.40
2018-05-23T10:45:37.132Z,7.37
2018-05-23T10:48:05.693Z,7.90
2018-05-23T10:50:33.308Z,6.60
2018-05-23T10:53:00.917Z,6.87
2018-05-23T10:55:30.690Z,6.60
2018-05-23T10:57:58.304Z,8.00
2018-05-23T11:00:25.918Z,9.13
2018-05-23T11:02:53.598Z,7.63
2018-05-23T11:05:21.223Z,7.93
2018-05-23T11:07:49.614Z,7.63
2018-05-23T11:10:18.030Z,8.43
2018-05-23T11:12:45.646Z,10.57
2018-05-23T11:15:14.001Z,8.27
2018-05-23T11:17:41.647Z,7.33
2018-05-23T11:20:09.265Z,11.27
2018-05-23T11:22:44.406Z,9.00
2018-05-23T11:25:12.029Z,7.43
2018-05-23T11:27:39.643Z,8.80
2018-05-23T11:30:07.290Z,7.70
2018-05-23T11:32:34.895Z,9.37
2018-05-23T11:35:02.502Z,8.33
2018-05-23T11:37:31.802Z,9.20
2018-05-23T11:39:59.421Z,9.57
2018-05-23T11:42:27.037Z,9.83
2018-05-23T11:44:54.694Z,12.03
2018-05-23T11:47:22.297Z,9.57
2018-05-23T11:49:50.689Z,10.63
2018-05-23T11:52:18.405Z,8.60
2018-05-23T11:54:46.121Z,12.03
2018-05-23T11:57:14.431Z,11.23
2018-05-23T11:59:42.081Z,8.03
2018-05-23T12:02:09.689Z,11.77
2018-05-23T12:04:37.296Z,10.43
2018-05-23T12:07:04.953Z,13.03
2018-05-23T12:12:07.420Z,10.30
2018-05-23T12:14:35.071Z,10.53
2018-05-23T12:17:03.438Z,8.80
2018-05-23T12:19:31.096Z,9.20
2018-05-23T12:21:58.707Z,8.27
2018-05-23T12:24:26.351Z,10.60
2018-05-23T12:26:54.788Z,8.07
2018-05-23T12:29:22.393Z,8.23
2018-05-23T12:31:50.767Z,15.83
2018-05-23T12:34:18.420Z,7.57
2018-05-23T12:36:46.040Z,7.00
2018-05-23T12:39:13.641Z,7.30
2018-05-23T12:41:41.362Z,7.60
2018-05-23T12:44:09.186Z,13.33
2018-05-23T12:46:36.813Z,7.47
2018-05-23T12:49:04.470Z,11.10
2018-05-23T12:51:32.147Z,8.03
2018-05-23T12:53:59.798Z,7.70
2018-05-23T12:56:27.459Z,9.43
2018-05-23T12:58:55.095Z,7.73
2018-05-23T13:01:22.766Z,8.60
2018-05-23T13:03:50.405Z,8.90
2018-05-23T13:06:18.018Z,9.13
2018-05-23T13:08:46.382Z,8.87
2018-05-23T13:11:14.025Z,8.20
2018-05-23T13:13:41.633Z,6.83
2018-05-23T13:16:10.006Z,9.03
2018-05-23T13:18:38.426Z,7.77
2018-05-23T13:21:06.033Z,8.27
2018-05-23T13:23:33.644Z,7.87
2018-05-23T13:26:01.404Z,9.40
2018-05-23T13:28:28.945Z,8.10
2018-05-23T13:30:57.338Z,7.17
2018-05-23T13:33:25.737Z,6.73
2018-05-23T13:35:53.368Z,5.47
2018-05-23T13:38:20.974Z,6.27
2018-05-23T13:40:48.614Z,5.57
2018-05-23T13:43:17.000Z,6.50
2018-05-23T13:45:45.374Z,4.73
2018-05-23T13:48:13.784Z,6.27
2018-05-23T13:50:41.381Z,6.00
2018-05-23T13:53:08.999Z,8.30
2018-05-23T13:55:36.637Z,5.03
2018-05-23T13:58:04.265Z,6.13
2018-05-23T14:00:31.865Z,5.50
2018-05-23T14:02:59.543Z,5.97
2018-05-23T14:05:27.178Z,10.13
2018-05-23T14:07:54.824Z,6.90
2018-05-23T14:10:22.477Z,5.17
2018-05-23T14:12:50.085Z,5.90
2018-05-23T14:15:17.698Z,6.57
2018-05-23T14:17:45.367Z,5.00
2018-05-23T14:20:13.006Z,10.80
2018-05-23T14:22:40.612Z,6.07
2018-05-23T14:25:08.263Z,5.53
2018-05-23T14:27:35.865Z,5.97
2018-05-23T14:30:03.469Z,8.90
2018-05-23T14:32:31.878Z,8.77
2018-05-23T14:35:00.120Z,7.83
2018-05-23T14:37:27.737Z,6.17
2018-05-23T14:39:55.373Z,4.73
2018-05-23T14:42:23.739Z,11.67
2018-05-23T14:44:51.367Z,4.73
2018-05-23T14:47:19.035Z,5.67
2018-05-23T14:49:46.637Z,5.90
2018-05-23T14:52:14.277Z,5.50
2018-05-23T14:54:41.921Z,8.10
2018-05-23T14:57:09.533Z,7.80
2018-05-23T14:59:37.142Z,7.13
2018-05-23T15:02:05.565Z,7.93
2018-05-23T15:04:33.175Z,4.87
2018-05-23T15:07:00.795Z,5.83
2018-05-23T15:09:28.477Z,7.23
2018-05-23T15:11:56.097Z,6.07
2018-05-23T15:14:23.799Z,5.33
2018-05-23T15:16:52.187Z,4.87
2018-05-23T15:19:19.813Z,9.63
2018-05-23T15:21:47.425Z,7.27
2018-05-23T15:24:15.070Z,4.13
2018-05-23T15:26:42.671Z,3.90
2018-05-23T15:29:10.289Z,4.47
2018-05-23T15:31:37.993Z,9.73
2018-05-23T15:34:05.631Z,5.77
2018-05-23T15:36:33.228Z,4.67
2018-05-23T15:39:00.862Z,9.27
2018-05-23T15:41:28.464Z,4.03
2018-05-23T15:43:56.708Z,4.27
2018-05-23T15:46:24.360Z,5.33
2018-05-23T15:48:51.982Z,4.17
2018-05-23T15:51:19.596Z,3.63
2018-05-23T15:53:47.251Z,6.63
2018-05-23T15:56:14.882Z,5.57
2018-05-23T15:58:42.512Z,8.87
2018-05-23T16:01:10.186Z,6.50
2018-05-23T16:03:37.787Z,5.20
2018-05-23T16:06:06.163Z,3.93
2018-05-23T16:08:33.812Z,6.70
2018-05-23T16:11:01.427Z,3.30
2018-05-23T16:13:29.045Z,11.03
2018-05-23T16:15:56.697Z,5.13
2018-05-23T16:18:24.302Z,6.87
2018-05-23T16:20:52.691Z,5.70
2018-05-23T16:23:21.084Z,6.93
2018-05-23T16:25:49.446Z,7.53
2018-05-23T16:28:17.831Z,4.83
2018-05-23T16:30:46.227Z,4.33
2018-05-23T16:33:14.625Z,4.37
2018-05-23T16:35:42.231Z,5.93
2018-05-23T16:38:09.978Z,4.33
2018-05-23T16:40:37.589Z,6.17
2018-05-23T16:43:05.209Z,6.00
2018-05-23T16:45:32.853Z,3.17
2018-05-23T16:48:01.296Z,3.50
2018-05-23T16:50:28.943Z,7.43
2018-05-23T16:52:56.588Z,3.57
2018-05-23T16:55:24.214Z,7.53
2018-05-23T16:57:54.220Z,3.47
2018-05-23T17:00:21.871Z,3.33
2018-05-23T17:02:49.558Z,5.57
2018-05-23T17:05:17.197Z,3.70
2018-05-23T17:07:44.845Z,4.37
2018-05-23T17:10:12.457Z,5.03
2018-05-23T17:12:40.066Z,3.83
2018-05-23T17:15:07.713Z,5.17
2018-05-23T17:17:35.320Z,2.60
2018-05-23T17:20:02.943Z,5.97
2018-05-23T17:22:30.643Z,5.20
2018-05-23T17:24:58.254Z,3.40
2018-05-23T17:27:25.865Z,4.37
2018-05-23T17:29:53.506Z,4.67
2018-05-23T17:32:21.113Z,4.47
2018-05-23T17:34:48.728Z,4.13
2018-05-23T17:37:17.156Z,7.80
2018-05-23T17:39:44.765Z,3.23
2018-05-23T17:42:12.431Z,8.13
2018-05-23T17:44:40.091Z,3.93
2018-05-23T17:47:07.720Z,7.00
2018-05-23T17:49:35.329Z,4.67
2018-05-23T17:52:03.737Z,3.80
2018-05-23T17:54:31.458Z,3.33
2018-05-23T17:56:59.083Z,3.77
2018-05-23T17:59:26.761Z,3.90
2018-05-23T18:01:54.376Z,6.23
2018-05-23T18:04:22.762Z,4.17
2018-05-23T18:06:51.232Z,4.40
2018-05-23T18:09:18.864Z,4.73
2018-05-23T18:11:46.465Z,3.77
2018-05-23T18:14:14.096Z,5.23
2018-05-23T18:16:41.758Z,6.23
2018-05-23T18:19:09.365Z,4.93
2018-05-23T18:21:37.012Z,3.40
2018-05-23T18:24:04.713Z,5.43
2018-05-23T18:26:33.093Z,3.87
2018-05-23T18:29:00.745Z,7.00
2018-05-23T18:31:28.353Z,4.00
2018-05-23T18:33:55.973Z,3.37
2018-05-23T18:36:23.876Z,3.40
2018-05-23T18:38:52.257Z,8.47
2018-05-23T18:41:19.873Z,5.50
2018-05-23T18:43:47.513Z,3.53
2018-05-23T18:46:15.673Z,4.83
2018-05-23T18:48:43.276Z,5.03
2018-05-23T18:51:11.249Z,4.97
2018-05-23T18:53:38.886Z,6.13
2018-05-23T18:56:06.509Z,5.87
2018-05-23T18:58:34.163Z,3.57
2018-05-23T19:01:01.794Z,5.93
2018-05-23T19:03:29.424Z,3.63
2018-05-23T19:05:57.837Z,3.30
2018-05-23T19:08:25.455Z,3.57
2018-05-23T19:10:53.092Z,5.23
2018-05-23T19:13:20.747Z,5.40
2018-05-23T19:15:48.358Z,3.20
2018-05-23T19:18:16.002Z,4.63
2018-05-23T19:20:43.652Z,6.20
2018-05-23T19:23:11.262Z,4.97
2018-05-23T19:25:39.698Z,6.03
2018-05-23T19:28:07.378Z,5.40
2018-05-23T19:30:34.990Z,3.53
2018-05-23T19:33:03.369Z,5.30
2018-05-23T19:35:32.267Z,3.53
2018-05-23T19:38:00.733Z,3.23
2018-05-23T19:40:28.335Z,2.97
2018-05-23T19:42:55.974Z,4.60
2018-05-23T19:45:24.386Z,3.80
2018-05-23T19:47:51.997Z,3.30
2018-05-23T19:50:19.643Z,3.83
2018-05-23T19:52:47.344Z,4.27
2018-05-23T19:55:14.912Z,4.20
2018-05-23T19:57:42.587Z,4.20
2018-05-23T20:00:10.977Z,4.37
2018-05-23T20:02:39.388Z,6.00
2018-05-23T20:05:07.031Z,6.67
2018-05-23T20:07:35.423Z,5.37
2018-05-23T20:10:03.050Z,3.37
2018-05-23T20:12:30.690Z,3.23
2018-05-23T20:14:58.298Z,3.77
2018-05-23T20:17:25.913Z,3.60
2018-05-23T20:19:53.557Z,3.73
2018-05-23T20:22:21.172Z,4.13
2018-05-23T20:24:49.934Z,4.50
2018-05-23T20:27:18.496Z,2.93
2018-05-23T20:29:46.122Z,3.77
2018-05-23T20:32:13.731Z,4.53
2018-05-23T20:34:41.374Z,3.93
2018-05-23T20:37:09.757Z,4.00
2018-05-23T20:39:38.131Z,4.00
2018-05-23T20:42:05.785Z,3.30
2018-05-23T20:44:33.425Z,3.53
2018-05-23T20:47:01.090Z,2.93
2018-05-23T20:49:28.729Z,3.40
2018-05-23T20:51:56.370Z,2.90
2018-05-23T20:54:24.774Z,2.90
2018-05-23T20:56:52.440Z,6.40
2018-05-23T20:59:20.061Z,2.77
2018-05-23T21:01:47.674Z,4.60
2018-05-23T21:04:15.353Z,3.63
2018-05-23T21:06:42.957Z,3.03
2018-05-23T21:09:10.572Z,3.50
2018-05-23T21:11:38.265Z,3.30
2018-05-23T21:14:05.845Z,4.70
2018-05-23T21:16:33.480Z,3.23
2018-05-23T21:19:01.117Z,3.90
2018-05-23T21:21:29.498Z,3.10
2018-05-23T21:23:57.891Z,3.73
2018-05-23T21:26:43.587Z,3.03
2018-05-23T21:29:11.218Z,5.90
2018-05-23T21:31:42.052Z,3.73
2018-05-23T21:34:09.671Z,2.47
2018-05-23T21:36:37.277Z,3.53
2018-05-23T21:39:05.802Z,3.30
2018-05-23T21:41:33.402Z,3.90
2018-05-23T21:44:01.010Z,3.43
2018-05-23T21:46:29.453Z,6.27
2018-05-23T21:48:57.078Z,4.43
2018-05-23T21:51:24.696Z,3.57
2018-05-23T21:53:52.415Z,6.93
2018-05-23T21:56:20.042Z,5.50
2018-05-23T21:58:47.657Z,5.50
2018-05-23T22:01:15.309Z,3.83
2018-05-23T22:03:42.916Z,4.30
2018-05-23T22:06:10.521Z,3.37
2018-05-23T22:08:38.932Z,3.77
2018-05-23T22:11:06.569Z,8.93
2018-05-23T22:13:34.946Z,4.00
2018-05-23T22:16:02.592Z,3.43
2018-05-23T22:18:30.217Z,3.23
2018-05-23T22:20:57.857Z,3.80
2018-05-23T22:23:26.284Z,5.23
2018-05-23T22:25:53.893Z,4.13
2018-05-23T22:28:22.266Z,6.53
2018-05-23T22:30:50.000Z,3.37
2018-05-23T22:33:17.617Z,3.00
2018-05-23T22:35:45.984Z,4.83
2018-05-23T22:38:13.640Z,2.90
2018-05-23T22:40:41.259Z,6.37
2018-05-23T22:43:08.860Z,2.70
2018-05-23T22:45:36.493Z,4.07
2018-05-23T22:48:04.105Z,5.63
2018-05-23T22:50:32.473Z,3.03
2018-05-23T22:53:00.117Z,2.80
2018-05-23T22:55:27.716Z,2.53
2018-05-23T22:57:56.617Z,2.58
2018-05-23T23:00:25.028Z,3.07
2018-05-23T23:02:52.642Z,4.30
2018-05-23T23:05:20.251Z,4.40
2018-05-23T23:07:48.648Z,3.30
2018-05-23T23:10:16.246Z,3.30
2018-05-23T23:12:43.841Z,4.80
2018-05-23T23:15:12.245Z,3.43
2018-05-23T23:17:39.845Z,3.63
2018-05-23T23:20:07.453Z,3.10
2018-05-23T23:22:38.576Z,3.43
2018-05-23T23:25:06.196Z,4.00
2018-05-23T23:27:33.825Z,3.37
2018-05-23T23:30:01.451Z,6.67
2018-05-23T23:32:29.085Z,4.37
2018-05-23T23:34:56.685Z,3.30
2018-05-23T23:37:24.318Z,4.53
2018-05-23T23:39:51.925Z,3.60
2018-05-23T23:42:19.533Z,3.17
2018-05-23T23:44:47.938Z,2.47
2018-05-23T23:47:15.546Z,2.77
2018-05-23T23:49:43.144Z,2.90
2018-05-23T23:52:11.541Z,2.93
2018-05-23T23:54:39.186Z,3.83
2018-05-23T23:57:06.831Z,3.73
2018-05-23T23:59:34.474Z,4.80
